NCAR-RAP Real-Time Weather Data

Output produced by METARs form (12 August 2020  17:29 UTC)
found at http://weather.rap.ucar.edu/surface/
 
KRIW 121653Z AUTO 04004KT 10SM CLR 24/00 A3003 RMK AO2 SLP092 T02440000
KRIW 121553Z AUTO 05004KT 10SM CLR 21/04 A3003 RMK AO2 SLP097 T02060039
KRIW 121453Z AUTO 04004KT 10SM CLR 21/03 A3003 RMK AO2 SLP095 T02060033 51004
KRIW 121353Z AUTO 33005KT 10SM CLR 22/M02 A3002 RMK AO2 SLP092 T02221022 TSNO
KRIW 121253Z AUTO 33007KT 10SM CLR 14/M01 A3002 RMK AO2 SLP101 T01441006 TSNO
KRIW 121153Z AUTO 20006KT 10SM CLR 17/01 A3001 RMK AO2 SLP091 T01670006 10217 20156 53003 TSNO
KRIW 121053Z AUTO 00000KT 10SM CLR 18/00 A3001 RMK AO2 SLP084 T01780000 TSNO
KRIW 120953Z AUTO 23005KT 10SM CLR 17/00 A3001 RMK AO2 SLP086 T01670000 TSNO
KRIW 120853Z AUTO 26006KT 10SM CLR 17/01 A3000 RMK AO2 SLP080 T01720006 56001
KRIW 120753Z AUTO 28009KT 10SM CLR 18/01 A3000 RMK AO2 SLP081 T01830006
KRIW 120653Z AUTO 27013KT 10SM CLR 22/02 A3000 RMK AO2 SLP078 T02170017 403390139
KRIW 120553Z AUTO 25012KT 10SM CLR 22/02 A3001 RMK AO2 SLP082 T02170017 10294 20217 50005
KRIW 120453Z AUTO 26011G23KT 10SM CLR 24/02 A3002 RMK AO2 PK WND 24027/0420 SLP086 T02390017
KRIW 120353Z AUTO 24009KT 10SM CLR 24/02 A3002 RMK AO2 SLP091 T02390017
KRIW 120253Z AUTO 21013KT 10SM CLR 24/03 A2999 RMK AO2 PK WND 22028/0205 SLP081 T02440028 52010
KRIW 120153Z AUTO 22016G23KT 10SM CLR 26/03 A2997 RMK AO2 PK WND 20039/0054 SLP077 T02560033
KRIW 120053Z AUTO 20024G37KT 10SM CLR 26/04 A2996 RMK AO2 PK WND 19044/0019 SLP080 T02610039
KRIW 112353Z AUTO 19009KT 10SM CLR 29/01 A2995 RMK AO2 SLP070 T02890011 10339 20283 56005
KRIW 112253Z AUTO 18017KT 10SM CLR 31/01 A2996 RMK AO2 PK WND 19038/2156 SLP067 T03060011
KRIW 112153Z AUTO 20026G34KT 10SM CLR 31/01 A2996 RMK AO2 PK WND 21034/2152 SLP070 T03060011